Time;durP1;ratioP1;P1;durP2;ratioP2;P2;SDS_P1;SDS_P2;PMS_P1;PMS_P2;Temp;Humidity;BMP_temperature;BMP_pressure;BME280_temperature;BME280_humidity;BME280_pressure;Samples;Min_cycle;Max_cycle;Signal;HPM_P1;HPM_P2
2023/01/31 00:01:15;;;;;;;7.30;5.77;;;3.10;99.90;;;;;;5027968;28;20440;-72
2023/01/31 00:03:42;;;;;;;11.60;7.07;;;3.10;99.90;;;;;;5026240;28;20487;-71
2023/01/31 00:06:21;;;;;;;8.80;5.63;;;3.10;99.90;;;;;;5030949;28;20444;-72
2023/01/31 00:08:47;;;;;;;7.07;5.23;;;3.10;99.90;;;;;;5033625;28;20467;-71
2023/01/31 00:11:15;;;;;;;11.37;5.33;;;3.10;99.90;;;;;;5030526;28;20443;-71
2023/01/31 00:13:41;;;;;;;10.13;6.43;;;3.00;99.90;;;;;;5031325;28;20452;-71
2023/01/31 00:16:08;;;;;;;8.43;4.90;;;3.00;99.90;;;;;;5031261;28;20469;-72
2023/01/31 00:18:34;;;;;;;10.37;6.03;;;2.90;99.90;;;;;;5030363;28;20523;-71
2023/01/31 00:21:12;;;;;;;8.93;5.50;;;2.90;99.90;;;;;;5028644;28;20475;-71
2023/01/31 00:23:38;;;;;;;7.13;5.90;;;2.80;99.90;;;;;;5028409;28;20962;-71
2023/01/31 00:26:11;;;;;;;11.03;5.57;;;2.80;99.90;;;;;;5029185;28;20455;-71
2023/01/31 00:28:37;;;;;;;6.60;5.10;;;2.70;99.90;;;;;;5023771;28;20510;-71
2023/01/31 00:31:03;;;;;;;12.00;4.50;;;2.60;99.90;;;;;;5033934;28;20441;-71
2023/01/31 00:33:29;;;;;;;13.53;6.17;;;2.50;99.90;;;;;;5034096;28;20451;-72
2023/01/31 00:35:54;;;;;;;11.47;7.67;;;2.50;99.90;;;;;;5040275;28;20451;-71
2023/01/31 00:38:20;;;;;;;7.77;6.50;;;2.50;99.90;;;;;;5027459;28;20648;-71
2023/01/31 00:40:52;;;;;;;11.93;5.80;;;2.40;99.90;;;;;;5028130;28;20178;-72
2023/01/31 00:43:18;;;;;;;7.80;5.80;;;2.40;99.90;;;;;;5023538;28;20206;-71
2023/01/31 00:45:43;;;;;;;11.50;5.90;;;2.30;99.90;;;;;;5033735;28;20468;-71
2023/01/31 00:48:09;;;;;;;8.10;5.90;;;2.30;99.90;;;;;;5029296;28;20210;-72
2023/01/31 00:50:34;;;;;;;11.50;6.83;;;2.30;99.90;;;;;;5029592;28;20186;-72
2023/01/31 00:53:01;;;;;;;8.40;5.20;;;2.20;99.90;;;;;;5020449;28;20195;-71
2023/01/31 00:55:26;;;;;;;7.67;5.90;;;2.20;99.90;;;;;;5031929;28;20186;-71
2023/01/31 00:57:52;;;;;;;10.10;5.97;;;2.20;99.90;;;;;;5022941;28;20481;-72
2023/01/31 01:00:17;;;;;;;15.00;6.10;;;2.20;99.90;;;;;;5027083;28;20232;-72
2023/01/31 01:02:43;;;;;;;7.90;5.37;;;2.20;99.90;;;;;;5031932;28;20186;-71
2023/01/31 01:05:08;;;;;;;8.00;5.03;;;2.20;99.90;;;;;;5031089;28;20182;-71
2023/01/31 01:07:35;;;;;;;11.13;6.03;;;2.10;99.90;;;;;;5028618;28;20193;-71
2023/01/31 01:10:00;;;;;;;9.20;5.70;;;2.00;99.90;;;;;;5026779;28;20240;-71
2023/01/31 01:12:26;;;;;;;18.10;6.03;;;2.00;99.90;;;;;;5025590;28;20464;-72
2023/01/31 01:14:51;;;;;;;8.60;5.13;;;2.00;99.90;;;;;;5033200;28;20588;-72
2023/01/31 01:17:17;;;;;;;8.97;5.90;;;2.00;99.90;;;;;;5026989;28;20289;-72
2023/01/31 01:19:42;;;;;;;11.23;4.77;;;2.00;99.90;;;;;;5027088;28;20206;-72
2023/01/31 01:22:08;;;;;;;11.90;5.57;;;2.00;99.90;;;;;;5029759;28;20229;-72
2023/01/31 01:24:33;;;;;;;13.87;5.97;;;2.00;99.90;;;;;;5034347;28;20261;-72
2023/01/31 01:26:59;;;;;;;11.20;5.70;;;2.00;99.90;;;;;;5026671;28;20187;-72
2023/01/31 01:29:24;;;;;;;10.67;5.87;;;2.00;99.90;;;;;;5030932;28;20198;-72
2023/01/31 01:31:50;;;;;;;8.83;5.60;;;1.90;99.90;;;;;;5029476;28;20198;-72
2023/01/31 01:34:16;;;;;;;9.83;6.30;;;1.90;99.90;;;;;;5025472;28;20673;-72
2023/01/31 01:36:42;;;;;;;20.60;6.43;;;1.90;99.90;;;;;;5031586;28;20618;-72
2023/01/31 01:39:10;;;;;;;8.03;4.50;;;1.90;99.90;;;;;;5028430;28;20559;-72
2023/01/31 01:41:37;;;;;;;8.13;5.43;;;1.90;99.90;;;;;;5025222;28;20446;-71
2023/01/31 01:44:24;;;;;;;13.20;6.10;;;1.90;99.90;;;;;;5021133;28;20441;-72
2023/01/31 01:46:50;;;;;;;8.57;5.13;;;1.90;99.90;;;;;;5020283;28;20512;-71
2023/01/31 01:49:16;;;;;;;9.80;6.47;;;1.90;99.90;;;;;;5029695;28;20506;-72
2023/01/31 01:51:43;;;;;;;10.43;5.60;;;2.00;99.90;;;;;;5027048;28;20441;-72
2023/01/31 01:54:15;;;;;;;9.30;5.13;;;2.00;99.90;;;;;;5028392;28;20197;-72
2023/01/31 01:56:44;;;;;;;11.10;5.40;;;2.00;99.90;;;;;;5027606;28;20819;-71
2023/01/31 01:59:17;;;;;;;15.17;5.33;;;1.90;99.90;;;;;;5027688;28;20834;-71
2023/01/31 02:01:46;;;;;;;8.90;5.67;;;1.90;99.90;;;;;;5026077;28;20439;-72
2023/01/31 02:04:18;;;;;;;10.27;4.37;;;1.90;99.90;;;;;;5023525;28;20456;-72
2023/01/31 02:06:45;;;;;;;5.67;4.70;;;1.90;99.90;;;;;;5020647;28;20575;-72
2023/01/31 02:09:21;;;;;;;14.53;5.30;;;1.90;99.90;;;;;;5027815;28;20534;-72
2023/01/31 02:11:47;;;;;;;12.67;6.77;;;1.90;99.90;;;;;;5029150;28;20444;-72
2023/01/31 02:14:12;;;;;;;9.37;6.80;;;1.90;99.90;;;;;;5020679;28;20519;-72
2023/01/31 02:16:38;;;;;;;10.77;6.73;;;1.90;99.90;;;;;;5029986;28;20444;-71
2023/01/31 02:19:14;;;;;;;8.53;6.20;;;1.80;99.90;;;;;;5024864;28;20711;-72
2023/01/31 02:22:05;;;;;;;10.77;6.90;;;1.90;99.90;;;;;;5025175;28;20205;-72
2023/01/31 02:25:07;;;;;;;7.60;5.50;;;1.80;99.90;;;;;;5018686;28;22239;-71
2023/01/31 02:28:08;;;;;;;10.47;5.37;;;1.80;99.90;;;;;;5015958;28;20452;-73
2023/01/31 02:30:48;;;;;;;9.43;5.07;;;1.80;99.90;;;;;;5017387;28;20459;-71
2023/01/31 02:33:23;;;;;;;12.30;6.23;;;1.80;99.90;;;;;;5030772;28;20451;-71
2023/01/31 02:36:04;;;;;;;10.27;5.30;;;1.70;99.90;;;;;;5025865;28;21045;-72
2023/01/31 02:38:29;;;;;;;7.03;5.60;;;1.80;99.90;;;;;;5015000;28;21055;-72
2023/01/31 02:41:12;;;;;;;11.23;5.93;;;1.70;99.90;;;;;;5024945;28;20437;-71
2023/01/31 02:47:04;;;;;;;8.07;5.27;;;1.70;99.90;;;;;;5021733;28;20451;-72
2023/01/31 02:49:36;;;;;;;13.60;6.33;;;1.70;99.90;;;;;;5021811;28;21031;-72
2023/01/31 02:52:15;;;;;;;8.70;6.00;;;1.70;99.90;;;;;;5023916;28;20432;-72
2023/01/31 02:57:50;;;;;;;9.40;5.27;;;1.70;99.90;;;;;;5024346;28;20471;-72
2023/01/31 03:00:17;;;;;;;15.20;6.10;;;1.70;99.90;;;;;;5023872;28;20485;-72
2023/01/31 03:02:43;;;;;;;13.40;6.07;;;1.70;99.90;;;;;;5020419;28;20965;-72
2023/01/31 03:05:14;;;;;;;12.87;6.60;;;1.70;99.90;;;;;;5027047;28;20443;-72
2023/01/31 03:07:41;;;;;;;11.03;8.50;;;1.70;99.90;;;;;;5026593;28;20843;-72
2023/01/31 03:10:31;;;;;;;18.93;6.90;;;1.70;99.90;;;;;;5022183;28;20473;-72
2023/01/31 03:13:38;;;;;;;11.73;6.20;;;1.70;99.90;;;;;;5026986;28;20490;-71
2023/01/31 03:19:41;;;;;;;12.37;6.67;;;1.70;99.90;;;;;;5030239;28;20920;-72
2023/01/31 03:22:17;;;;;;;10.37;5.93;;;1.70;99.90;;;;;;5029592;28;20443;-72
2023/01/31 03:24:46;;;;;;;15.97;5.97;;;1.70;99.90;;;;;;5024499;28;20443;-72
2023/01/31 03:27:12;;;;;;;10.17;5.93;;;1.60;99.90;;;;;;5026248;28;20528;-72
2023/01/31 03:29:38;;;;;;;10.87;5.33;;;1.60;99.90;;;;;;5034562;28;21030;-72
2023/01/31 03:32:29;;;;;;;8.40;5.70;;;1.70;99.90;;;;;;5035122;28;20523;-72
2023/01/31 03:34:56;;;;;;;14.60;6.30;;;1.70;99.90;;;;;;5029291;28;20433;-71
2023/01/31 03:37:39;;;;;;;12.93;6.57;;;1.70;99.90;;;;;;5032694;28;20475;-72
2023/01/31 03:40:16;;;;;;;8.87;6.30;;;1.70;99.90;;;;;;5028216;28;20529;-72
2023/01/31 03:42:50;;;;;;;9.37;6.40;;;1.70;99.90;;;;;;5025834;28;20429;-72
2023/01/31 03:45:35;;;;;;;12.20;5.90;;;1.80;99.90;;;;;;5026642;28;20495;-72
2023/01/31 03:48:02;;;;;;;15.53;6.37;;;1.80;99.90;;;;;;5026595;28;20460;-72
2023/01/31 03:50:33;;;;;;;11.23;5.60;;;1.80;99.90;;;;;;5033615;28;20443;-72
2023/01/31 03:53:19;;;;;;;11.43;6.13;;;1.80;99.90;;;;;;5034839;28;20433;-72
2023/01/31 03:55:52;;;;;;;11.70;6.17;;;1.70;99.90;;;;;;5021419;28;20455;-71
2023/01/31 03:58:23;;;;;;;8.33;6.03;;;1.70;99.90;;;;;;5022643;28;20476;-72
2023/01/31 04:00:50;;;;;;;21.93;6.63;;;1.60;99.90;;;;;;5018434;28;20451;-72
2023/01/31 04:03:25;;;;;;;11.03;6.13;;;1.60;99.90;;;;;;5032695;28;20427;-71
2023/01/31 04:05:51;;;;;;;9.73;5.67;;;1.60;99.90;;;;;;5024789;28;20428;-71
2023/01/31 04:08:17;;;;;;;8.10;5.57;;;1.60;99.90;;;;;;5031538;28;21027;-72
2023/01/31 04:10:42;;;;;;;12.23;6.47;;;1.60;99.90;;;;;;5024083;28;20175;-72
2023/01/31 04:13:08;;;;;;;15.60;8.17;;;1.60;99.90;;;;;;5025193;28;20249;-72
2023/01/31 04:15:34;;;;;;;10.10;6.23;;;1.60;99.90;;;;;;5027644;28;20228;-72
2023/01/31 04:17:59;;;;;;;13.07;6.20;;;1.60;99.90;;;;;;5027768;28;20829;-72
2023/01/31 04:20:25;;;;;;;16.83;6.67;;;1.60;99.90;;;;;;5019537;28;20701;-71
2023/01/31 04:22:50;;;;;;;12.43;7.40;;;1.60;99.90;;;;;;5027689;28;20187;-72
2023/01/31 04:25:16;;;;;;;10.90;6.43;;;1.60;99.90;;;;;;5023557;28;20265;-72
2023/01/31 04:27:42;;;;;;;10.47;5.60;;;1.50;99.90;;;;;;5022473;28;20333;-71
2023/01/31 04:30:08;;;;;;;14.60;5.93;;;1.50;99.90;;;;;;5033221;28;20178;-71
2023/01/31 04:32:33;;;;;;;17.10;6.47;;;1.50;99.90;;;;;;5026851;28;20189;-72
2023/01/31 04:34:59;;;;;;;10.57;6.93;;;1.50;99.90;;;;;;5032380;28;20788;-72
2023/01/31 04:37:24;;;;;;;15.87;6.67;;;1.50;99.90;;;;;;5024715;28;20277;-71
2023/01/31 04:39:50;;;;;;;15.13;5.60;;;1.50;99.90;;;;;;5024381;28;20178;-72
2023/01/31 04:42:15;;;;;;;10.17;6.43;;;1.50;99.90;;;;;;5027758;28;20186;-72
2023/01/31 04:44:41;;;;;;;12.40;7.57;;;1.50;99.90;;;;;;5028882;28;20664;-71
2023/01/31 04:47:06;;;;;;;17.60;5.70;;;1.40;99.90;;;;;;5020428;28;20263;-72
2023/01/31 04:49:32;;;;;;;10.20;5.43;;;1.40;99.90;;;;;;5032958;28;20580;-72
2023/01/31 04:51:57;;;;;;;10.70;5.90;;;1.40;99.90;;;;;;5028821;28;20175;-71
2023/01/31 04:54:23;;;;;;;10.20;6.27;;;1.40;99.90;;;;;;5033784;28;20255;-71
2023/01/31 04:56:49;;;;;;;11.40;6.03;;;1.40;99.90;;;;;;5027853;28;20182;-71
2023/01/31 04:59:14;;;;;;;8.20;5.40;;;1.40;99.90;;;;;;5032707;28;20765;-72
2023/01/31 05:01:40;;;;;;;10.97;5.90;;;1.40;99.90;;;;;;5029120;28;20556;-71
2023/01/31 05:04:06;;;;;;;7.30;5.57;;;1.40;99.90;;;;;;5031982;28;20228;-72
2023/01/31 05:06:32;;;;;;;12.97;6.47;;;1.40;99.90;;;;;;5023349;28;20428;-71
2023/01/31 05:09:00;;;;;;;11.00;6.17;;;1.40;99.90;;;;;;5022754;28;20568;-72
2023/01/31 05:11:26;;;;;;;13.30;6.93;;;1.40;99.90;;;;;;5030452;28;20201;-71
2023/01/31 05:13:52;;;;;;;15.20;6.27;;;1.40;99.90;;;;;;5029371;28;20473;-72
2023/01/31 05:16:17;;;;;;;11.50;6.40;;;1.40;99.90;;;;;;5030858;28;20884;-71
2023/01/31 05:18:43;;;;;;;12.70;6.47;;;1.50;99.90;;;;;;5036977;28;20618;-72
2023/01/31 05:21:09;;;;;;;10.20;6.20;;;1.50;99.90;;;;;;5032925;28;20261;-72
2023/01/31 05:23:35;;;;;;;10.77;6.20;;;1.50;99.90;;;;;;5027093;28;20177;-72
2023/01/31 05:26:01;;;;;;;12.47;6.60;;;1.50;99.90;;;;;;5023310;28;20438;-71
2023/01/31 05:28:27;;;;;;;9.73;5.77;;;1.50;99.90;;;;;;5030448;28;20208;-72
2023/01/31 05:30:52;;;;;;;13.47;6.10;;;1.50;99.90;;;;;;5022559;28;20266;-72
2023/01/31 05:33:21;;;;;;;8.10;6.17;;;1.40;99.90;;;;;;5024751;28;20652;-72
2023/01/31 05:35:47;;;;;;;8.17;5.03;;;1.40;99.90;;;;;;5025083;28;20191;-72
2023/01/31 05:38:14;;;;;;;13.80;6.93;;;1.40;99.90;;;;;;5031426;28;20472;-71
2023/01/31 05:40:39;;;;;;;10.60;5.57;;;1.40;99.90;;;;;;5031499;28;20512;-72
2023/01/31 05:43:05;;;;;;;6.53;5.90;;;1.40;99.90;;;;;;5019641;28;20608;-71
2023/01/31 05:45:30;;;;;;;13.77;6.07;;;1.30;99.90;;;;;;5020082;28;20608;-72
2023/01/31 05:47:56;;;;;;;6.60;5.03;;;1.20;99.90;;;;;;5023487;28;20206;-72
2023/01/31 05:50:22;;;;;;;14.40;7.03;;;1.10;99.90;;;;;;5022624;28;20191;-71
2023/01/31 05:52:53;;;;;;;8.40;6.33;;;1.10;99.90;;;;;;5022527;28;20441;-72
2023/01/31 05:55:19;;;;;;;16.93;8.03;;;1.00;99.90;;;;;;5030944;28;20182;-72
2023/01/31 05:57:45;;;;;;;11.77;7.70;;;0.90;99.90;;;;;;5022576;28;20993;-72
2023/01/31 06:00:12;;;;;;;12.53;5.93;;;0.90;99.90;;;;;;5021334;28;20437;-71
2023/01/31 06:02:37;;;;;;;12.57;5.90;;;0.80;99.90;;;;;;5021716;28;20174;-72
2023/01/31 06:05:03;;;;;;;13.07;7.57;;;0.80;99.90;;;;;;5027763;28;20835;-72
2023/01/31 06:07:29;;;;;;;10.43;6.67;;;0.80;99.90;;;;;;5022227;28;20660;-72
2023/01/31 06:09:54;;;;;;;9.20;6.10;;;0.80;99.90;;;;;;5024054;28;20183;-71
2023/01/31 06:12:20;;;;;;;10.83;7.07;;;0.70;99.90;;;;;;5024701;28;20194;-72
2023/01/31 06:14:45;;;;;;;10.30;6.97;;;0.80;99.90;;;;;;5025690;28;20188;-72
2023/01/31 06:17:11;;;;;;;16.70;7.80;;;0.70;99.90;;;;;;5027256;28;20178;-71
2023/01/31 06:19:37;;;;;;;12.00;8.03;;;0.70;99.90;;;;;;5026476;28;20198;-72
2023/01/31 06:22:04;;;;;;;11.30;6.93;;;0.70;99.90;;;;;;5021339;28;20444;-71
2023/01/31 06:24:29;;;;;;;10.90;6.40;;;0.70;99.90;;;;;;5021701;28;20184;-71
2023/01/31 06:26:55;;;;;;;13.47;7.83;;;0.70;99.90;;;;;;5024531;28;20953;-72
2023/01/31 06:29:20;;;;;;;16.17;6.67;;;0.70;99.90;;;;;;5023578;28;20692;-72
2023/01/31 06:31:46;;;;;;;13.30;8.20;;;0.60;99.90;;;;;;5027432;28;20268;-72
2023/01/31 06:34:11;;;;;;;11.40;6.33;;;0.60;99.90;;;;;;5022464;28;20187;-72
2023/01/31 06:36:37;;;;;;;11.47;7.03;;;0.60;99.90;;;;;;5021265;28;20651;-71
2023/01/31 06:39:03;;;;;;;15.57;7.87;;;0.60;99.90;;;;;;5025884;28;20218;-72
2023/01/31 06:41:29;;;;;;;11.93;7.57;;;0.60;99.90;;;;;;5022475;28;20187;-72
2023/01/31 06:43:55;;;;;;;18.27;7.40;;;0.60;99.90;;;;;;5013456;28;20434;-72
2023/01/31 06:46:20;;;;;;;9.70;7.37;;;0.60;99.90;;;;;;5023250;28;20962;-73
2023/01/31 06:48:47;;;;;;;14.13;7.53;;;0.60;99.90;;;;;;5023339;28;20463;-72
2023/01/31 06:51:13;;;;;;;12.53;7.73;;;0.60;99.90;;;;;;5023607;28;20174;-71
2023/01/31 06:53:39;;;;;;;10.47;7.57;;;0.60;99.90;;;;;;5022542;28;20452;-72
2023/01/31 06:56:09;;;;;;;11.83;7.70;;;0.70;99.90;;;;;;5015913;28;20453;-72
2023/01/31 06:58:34;;;;;;;12.90;8.17;;;0.70;99.90;;;;;;5016982;28;20412;-72
2023/01/31 07:01:05;;;;;;;7.73;6.57;;;0.70;99.90;;;;;;5018790;28;20532;-71
2023/01/31 07:03:30;;;;;;;18.03;7.80;;;0.70;99.90;;;;;;5024778;28;20567;-72
2023/01/31 07:05:56;;;;;;;19.30;8.03;;;0.70;99.90;;;;;;5023080;28;20429;-72
2023/01/31 07:08:21;;;;;;;18.33;8.00;;;0.70;99.90;;;;;;5019730;28;20609;-71
2023/01/31 07:10:47;;;;;;;12.03;7.23;;;0.70;99.90;;;;;;5022457;28;20182;-72
2023/01/31 07:13:14;;;;;;;9.80;7.27;;;0.70;99.90;;;;;;5028079;28;20632;-72
2023/01/31 07:15:39;;;;;;;15.47;7.07;;;0.70;99.90;;;;;;5020603;28;20437;-72
2023/01/31 07:18:05;;;;;;;18.17;9.93;;;0.80;99.90;;;;;;5023553;28;20866;-72
2023/01/31 07:20:31;;;;;;;14.73;7.80;;;0.80;99.90;;;;;;5029613;28;20213;-72
2023/01/31 07:22:57;;;;;;;18.83;7.80;;;0.90;99.90;;;;;;5028093;28;20194;-72
2023/01/31 07:25:24;;;;;;;13.40;8.30;;;0.90;99.90;;;;;;5021785;28;20214;-71
2023/01/31 07:27:49;;;;;;;12.97;8.57;;;1.00;99.90;;;;;;5022726;28;20463;-72
2023/01/31 07:30:15;;;;;;;12.20;6.70;;;1.20;99.90;;;;;;5031491;28;20486;-72
2023/01/31 07:32:40;;;;;;;15.03;7.87;;;1.50;99.90;;;;;;5029163;28;20594;-72
2023/01/31 07:35:07;;;;;;;16.43;9.50;;;1.80;99.90;;;;;;5028759;28;20186;-72
2023/01/31 07:37:33;;;;;;;13.67;8.07;;;2.20;99.90;;;;;;5024181;28;20228;-72
2023/01/31 07:39:58;;;;;;;11.50;7.70;;;2.50;99.90;;;;;;5021652;28;20445;-72
2023/01/31 07:42:24;;;;;;;14.77;7.77;;;2.80;99.90;;;;;;5019814;28;20498;-72
2023/01/31 07:44:49;;;;;;;14.10;6.57;;;3.00;99.90;;;;;;5022646;28;20217;-71
2023/01/31 07:47:15;;;;;;;10.30;5.93;;;3.20;99.90;;;;;;5024264;28;20213;-72
2023/01/31 07:49:40;;;;;;;8.93;5.73;;;3.50;99.90;;;;;;5020568;28;20735;-72
2023/01/31 07:52:06;;;;;;;12.23;7.13;;;3.70;99.90;;;;;;5019681;28;20547;-72
2023/01/31 07:54:32;;;;;;;8.73;6.20;;;3.80;99.90;;;;;;5021222;28;20198;-72
2023/01/31 07:56:58;;;;;;;13.20;5.70;;;4.10;99.90;;;;;;5026395;28;20189;-71
2023/01/31 07:59:23;;;;;;;14.23;5.97;;;4.20;99.90;;;;;;5026254;28;20473;-72
2023/01/31 08:04:33;;;;;;;13.23;6.63;;;4.90;99.90;;;;;;5025427;28;20248;-69
2023/01/31 08:07:01;;;;;;;10.13;5.90;;;5.30;99.90;;;;;;5018757;28;20433;-70
2023/01/31 08:09:27;;;;;;;6.50;5.47;;;5.40;99.90;;;;;;5013256;28;20194;-70
2023/01/31 08:11:53;;;;;;;6.20;4.77;;;5.40;99.90;;;;;;5019119;28;20440;-70
2023/01/31 08:14:24;;;;;;;9.80;6.50;;;5.50;99.90;;;;;;5027433;28;20185;-70
2023/01/31 08:16:53;;;;;;;10.13;4.67;;;5.40;99.90;;;;;;5026379;28;20633;-70
2023/01/31 08:19:18;;;;;;;6.97;4.93;;;5.40;99.90;;;;;;5027962;28;20527;-69
2023/01/31 08:21:44;;;;;;;12.30;6.10;;;5.90;99.90;;;;;;5028197;28;20429;-71
2023/01/31 08:24:09;;;;;;;6.47;4.67;;;6.30;99.90;;;;;;5034764;28;20220;-71
2023/01/31 08:26:35;;;;;;;10.20;5.57;;;6.90;99.90;;;;;;5034673;28;20178;-69
2023/01/31 08:29:00;;;;;;;10.23;5.30;;;7.10;99.90;;;;;;5033726;28;20571;-70
2023/01/31 08:31:27;;;;;;;11.33;5.73;;;7.50;99.90;;;;;;5032270;28;20190;-70
2023/01/31 08:33:56;;;;;;;10.23;6.50;;;7.60;99.90;;;;;;5014891;28;20175;-70
2023/01/31 08:36:24;;;;;;;18.40;5.50;;;7.80;99.90;;;;;;5027042;28;20444;-70
2023/01/31 08:38:50;;;;;;;7.80;5.73;;;7.80;99.90;;;;;;5028241;28;20473;-70
2023/01/31 08:41:17;;;;;;;6.57;4.33;;;7.70;99.90;;;;;;5034413;28;20429;-70
2023/01/31 08:43:43;;;;;;;6.43;4.90;;;7.50;99.90;;;;;;5031527;28;20440;-71
2023/01/31 08:46:09;;;;;;;12.13;5.97;;;7.20;99.90;;;;;;5021753;28;20456;-68
2023/01/31 08:48:36;;;;;;;9.57;5.80;;;7.80;99.90;;;;;;5029565;28;20449;-71
2023/01/31 08:51:04;;;;;;;8.07;5.60;;;8.60;99.90;;;;;;5033865;28;20625;-69
2023/01/31 08:53:30;;;;;;;9.33;5.50;;;8.70;99.90;;;;;;5026398;28;20817;-70
2023/01/31 08:56:00;;;;;;;8.13;5.47;;;8.10;99.90;;;;;;5034204;28;20451;-73
2023/01/31 08:58:26;;;;;;;8.83;5.60;;;7.30;99.90;;;;;;5033846;28;20252;-69
2023/01/31 09:00:52;;;;;;;5.83;4.20;;;6.70;99.90;;;;;;5030929;28;20567;-69
2023/01/31 09:03:17;;;;;;;10.07;4.73;;;6.90;99.90;;;;;;5032658;28;20421;-69
2023/01/31 09:05:44;;;;;;;13.20;5.00;;;7.30;99.90;;;;;;5025995;28;20257;-69
2023/01/31 09:08:10;;;;;;;15.93;6.73;;;7.30;99.90;;;;;;5023498;28;20232;-67
2023/01/31 09:10:35;;;;;;;6.97;6.03;;;7.70;99.90;;;;;;5033985;28;20487;-70
2023/01/31 09:13:01;;;;;;;8.37;4.87;;;8.20;99.90;;;;;;5034274;28;20409;-73
2023/01/31 09:15:26;;;;;;;12.60;5.70;;;8.10;99.90;;;;;;5032667;28;20261;-70
2023/01/31 09:17:52;;;;;;;10.60;5.23;;;7.70;99.90;;;;;;5031768;28;20206;-67
2023/01/31 09:20:17;;;;;;;9.73;5.00;;;7.30;99.90;;;;;;5032900;28;20277;-70
2023/01/31 09:22:43;;;;;;;11.97;5.53;;;6.80;99.90;;;;;;5028888;28;20167;-70
2023/01/31 09:25:09;;;;;;;7.93;5.40;;;7.20;99.90;;;;;;5014241;28;20768;-69
2023/01/31 09:27:37;;;;;;;8.13;5.30;;;7.90;99.90;;;;;;5014567;28;20194;-71
2023/01/31 09:30:07;;;;;;;9.97;4.63;;;8.20;99.90;;;;;;5013541;28;20830;-71
2023/01/31 09:32:34;;;;;;;10.17;4.93;;;8.10;99.90;;;;;;5013943;28;20525;-69
2023/01/31 09:34:59;;;;;;;6.83;3.97;;;8.50;99.90;;;;;;5014350;28;20429;-70
2023/01/31 09:37:27;;;;;;;9.73;5.10;;;6.80;99.90;;;;;;5016195;28;20520;-71
2023/01/31 09:39:52;;;;;;;6.17;3.67;;;6.50;99.90;;;;;;5028639;28;20186;-70
2023/01/31 09:42:29;;;;;;;9.00;5.13;;;6.30;99.90;;;;;;5027299;28;20425;-70
2023/01/31 09:45:04;;;;;;;13.33;5.40;;;6.20;99.90;;;;;;5022759;28;20276;-69
2023/01/31 09:47:36;;;;;;;7.10;5.00;;;6.10;99.90;;;;;;5022800;28;20519;-70
2023/01/31 09:50:14;;;;;;;11.87;4.50;;;6.00;99.90;;;;;;5017076;28;20970;-70
2023/01/31 09:52:40;;;;;;;9.87;4.67;;;6.00;99.90;;;;;;5025102;28;20444;-69
2023/01/31 09:55:16;;;;;;;6.43;4.27;;;5.90;99.90;;;;;;5028682;28;20445;-70
2023/01/31 09:58:03;;;;;;;8.40;3.83;;;5.80;99.90;;;;;;5023980;28;20205;-70
2023/01/31 10:00:38;;;;;;;5.97;4.60;;;5.70;99.90;;;;;;5028528;28;20452;-70
2023/01/31 10:03:06;;;;;;;8.80;5.37;;;5.70;99.90;;;;;;5023112;28;20502;-69
2023/01/31 10:05:54;;;;;;;8.20;4.30;;;5.70;99.90;;;;;;5032574;28;20501;-69
2023/01/31 10:08:41;;;;;;;8.83;5.40;;;5.60;99.90;;;;;;5032134;28;20531;-71
2023/01/31 10:11:26;;;;;;;9.40;5.53;;;5.50;99.90;;;;;;5032744;28;20425;-70
2023/01/31 10:13:57;;;;;;;11.97;5.17;;;5.40;99.90;;;;;;5032828;28;20449;-70
2023/01/31 10:16:27;;;;;;;9.10;4.30;;;5.40;99.90;;;;;;5032774;28;20448;-70
2023/01/31 10:19:08;;;;;;;9.13;4.23;;;5.50;99.90;;;;;;5031785;28;20460;-70
2023/01/31 10:21:46;;;;;;;8.07;4.63;;;5.40;99.90;;;;;;5032568;28;20816;-70
2023/01/31 10:24:22;;;;;;;8.63;4.33;;;5.60;99.90;;;;;;5032700;28;20515;-70
2023/01/31 10:26:51;;;;;;;10.43;5.30;;;5.80;99.90;;;;;;5032447;28;20416;-70
2023/01/31 10:29:33;;;;;;;11.20;4.53;;;5.80;99.90;;;;;;5031645;28;20995;-70
2023/01/31 10:32:05;;;;;;;8.40;3.77;;;5.90;99.90;;;;;;5032124;28;20427;-70
2023/01/31 10:34:51;;;;;;;21.83;4.40;;;5.90;99.90;;;;;;5031803;28;20456;-69
2023/01/31 10:37:38;;;;;;;11.90;4.03;;;5.90;99.90;;;;;;5032358;28;20468;-70
2023/01/31 10:40:17;;;;;;;9.20;4.00;;;6.20;99.90;;;;;;5031543;28;20933;-70
2023/01/31 10:42:49;;;;;;;13.23;3.73;;;6.30;99.90;;;;;;5032147;28;20443;-71
2023/01/31 10:45:18;;;;;;;12.10;5.00;;;6.30;99.90;;;;;;5032346;28;20409;-70
2023/01/31 10:47:51;;;;;;;5.37;3.67;;;6.30;99.90;;;;;;5032094;28;20548;-70
2023/01/31 10:50:54;;;;;;;5.47;3.50;;;6.20;99.90;;;;;;5031468;28;20445;-69
2023/01/31 10:53:36;;;;;;;7.07;3.60;;;6.20;99.90;;;;;;5032235;28;20515;-70
2023/01/31 10:56:10;;;;;;;7.83;3.93;;;6.20;99.90;;;;;;5032058;28;20429;-71
2023/01/31 10:58:37;;;;;;;9.30;4.70;;;6.00;99.90;;;;;;5031148;28;20475;-70
2023/01/31 11:01:07;;;;;;;4.93;2.87;;;6.00;99.90;;;;;;5031996;28;20448;-69
2023/01/31 11:03:33;;;;;;;5.60;4.33;;;6.10;99.90;;;;;;5031842;28;20428;-70
2023/01/31 11:06:00;;;;;;;8.13;3.83;;;6.30;99.90;;;;;;5032081;28;20413;-70
2023/01/31 11:08:32;;;;;;;9.70;3.60;;;6.60;99.90;;;;;;5031215;28;20941;-70
2023/01/31 11:11:05;;;;;;;6.10;3.93;;;6.80;99.90;;;;;;5016356;28;20519;-71
2023/01/31 11:13:31;;;;;;;7.73;3.53;;;6.70;99.90;;;;;;5016572;28;20480;-69
2023/01/31 11:15:57;;;;;;;6.30;3.20;;;6.70;99.90;;;;;;5019819;28;20441;-69
2023/01/31 11:18:33;;;;;;;7.70;4.17;;;6.50;99.90;;;;;;5023564;28;20210;-69
2023/01/31 11:21:01;;;;;;;7.93;3.40;;;6.30;99.90;;;;;;5032154;28;20443;-70
2023/01/31 11:23:30;;;;;;;8.93;3.50;;;6.30;99.90;;;;;;5018795;28;20486;-69
2023/01/31 11:25:56;;;;;;;5.77;3.30;;;6.30;99.90;;;;;;5027613;28;20454;-69
2023/01/31 11:28:28;;;;;;;8.60;3.80;;;6.20;99.90;;;;;;5020624;28;20496;-68
2023/01/31 11:30:54;;;;;;;4.60;3.87;;;6.10;99.90;;;;;;5021986;28;20437;-66
2023/01/31 11:33:44;;;;;;;8.87;4.20;;;6.10;99.90;;;;;;5024161;28;20445;-68
2023/01/31 11:36:13;;;;;;;12.50;7.00;;;6.30;99.90;;;;;;5029014;28;20998;-67
2023/01/31 11:38:39;;;;;;;40.47;23.63;;;7.50;99.90;;;;;;5018055;28;20468;-67
2023/01/31 11:41:34;;;;;;;52.03;28.73;;;8.40;99.90;;;;;;5022295;28;20432;-69
2023/01/31 11:44:11;;;;;;;45.70;28.73;;;8.30;99.90;;;;;;5025437;28;20174;-68
2023/01/31 11:46:43;;;;;;;42.77;25.23;;;8.10;99.90;;;;;;5024925;28;20432;-68
2023/01/31 11:49:18;;;;;;;23.03;14.87;;;7.80;99.90;;;;;;5012377;28;20464;-66
2023/01/31 11:51:45;;;;;;;9.73;4.80;;;7.60;99.90;;;;;;5026344;28;20461;-67
2023/01/31 11:54:19;;;;;;;14.10;6.30;;;7.50;99.90;;;;;;5027782;28;20446;-66
2023/01/31 11:56:45;;;;;;;9.00;5.57;;;7.10;99.90;;;;;;5027867;28;20456;-67
2023/01/31 11:59:15;;;;;;;13.80;9.30;;;6.90;99.90;;;;;;5037781;28;20567;-67
2023/01/31 12:01:52;;;;;;;23.23;15.53;;;6.90;99.90;;;;;;5021309;28;20433;-73
2023/01/31 12:04:24;;;;;;;8.13;5.20;;;7.10;99.90;;;;;;5031050;28;20960;-71
2023/01/31 12:07:17;;;;;;;10.83;5.60;;;7.00;99.90;;;;;;5020113;28;20437;-72
2023/01/31 12:09:43;;;;;;;10.20;5.20;;;6.90;99.90;;;;;;5021335;28;20958;-70
2023/01/31 12:12:32;;;;;;;11.70;6.13;;;7.00;99.90;;;;;;5030535;28;20437;-70
2023/01/31 12:15:12;;;;;;;9.20;4.47;;;6.90;99.90;;;;;;5022291;28;20437;-71
2023/01/31 12:17:44;;;;;;;5.97;3.10;;;6.80;99.90;;;;;;5017492;28;20524;-70
2023/01/31 12:20:19;;;;;;;2.93;2.60;;;6.70;99.90;;;;;;5024627;28;20442;-70
2023/01/31 12:22:56;;;;;;;6.10;3.03;;;6.60;99.90;;;;;;5026517;28;20444;-72
2023/01/31 12:25:41;;;;;;;6.13;3.37;;;6.60;99.90;;;;;;5033266;28;20436;-70
2023/01/31 12:28:40;;;;;;;7.93;3.20;;;6.50;99.90;;;;;;5024935;28;20483;-70
2023/01/31 12:31:17;;;;;;;14.07;5.17;;;6.40;99.90;;;;;;5025988;28;20428;-71
2023/01/31 12:33:58;;;;;;;7.07;4.73;;;6.40;99.90;;;;;;5022858;28;20467;-70
2023/01/31 12:36:36;;;;;;;7.87;3.57;;;6.40;99.90;;;;;;5027526;28;20441;-70
2023/01/31 12:39:14;;;;;;;4.50;3.30;;;6.60;99.90;;;;;;5019353;28;20468;-71
2023/01/31 12:41:55;;;;;;;8.13;3.83;;;6.80;99.90;;;;;;5024629;28;20525;-70
2023/01/31 12:44:48;;;;;;;11.30;4.50;;;6.80;99.90;;;;;;5031725;28;20449;-70
2023/01/31 12:47:38;;;;;;;10.40;5.70;;;6.90;99.90;;;;;;5017759;28;20442;-72
2023/01/31 12:50:42;;;;;;;21.00;7.97;;;6.70;99.90;;;;;;5018995;28;20452;-72
2023/01/31 12:53:29;;;;;;;12.00;7.40;;;6.70;99.90;;;;;;5022017;28;20925;-72
2023/01/31 12:56:21;;;;;;;15.17;8.03;;;6.60;99.90;;;;;;5020814;28;20445;-70
2023/01/31 12:59:04;;;;;;;7.67;3.50;;;6.50;99.90;;;;;;5019432;28;20510;-70
2023/01/31 13:01:44;;;;;;;5.80;4.53;;;6.20;99.90;;;;;;5025901;28;20464;-70
2023/01/31 13:04:44;;;;;;;5.30;4.70;;;6.10;99.90;;;;;;5024851;28;20452;-70
2023/01/31 13:07:27;;;;;;;7.17;3.33;;;6.10;99.90;;;;;;5032696;28;20974;-70
2023/01/31 13:09:57;;;;;;;5.00;3.27;;;6.00;99.90;;;;;;5028409;28;20529;-70
2023/01/31 13:12:28;;;;;;;8.50;4.10;;;6.00;99.90;;;;;;5021004;28;20453;-70
2023/01/31 13:15:22;;;;;;;5.27;3.63;;;5.90;99.90;;;;;;5028491;28;20445;-70
2023/01/31 13:17:53;;;;;;;8.90;4.63;;;5.90;99.90;;;;;;5011828;28;20465;-70
2023/01/31 13:20:28;;;;;;;8.13;4.90;;;6.10;99.90;;;;;;5027244;28;20424;-69